Time;durP1;ratioP1;P1;durP2;ratioP2;P2;SDS_P1;SDS_P2;PMS_P1;PMS_P2;Temp;Humidity;BMP_temperature;BMP_pressure;BME280_temperature;BME280_humidity;BME280_pressure;Samples;Min_cycle;Max_cycle;Signal;HPM_P1;HPM_P2
2021/12/22 00:00:54;;;;;;;5.73;2.20;;;-8.80;94.30;;;;;;2219957;64;20169;-35
2021/12/22 00:03:21;;;;;;;4.87;1.40;;;-8.90;94.00;;;;;;2220624;64;20168;-32
2021/12/22 00:05:48;;;;;;;4.47;1.30;;;-8.90;93.80;;;;;;2220478;64;20104;-34
2021/12/22 00:08:17;;;;;;;2.10;0.93;;;-8.90;93.50;;;;;;2220746;64;20096;-37
2021/12/22 00:10:44;;;;;;;4.20;1.47;;;-9.00;92.40;;;;;;2220589;64;20097;-37
2021/12/22 00:13:11;;;;;;;2.87;1.53;;;-9.00;92.40;;;;;;2220537;64;20104;-41
2021/12/22 00:15:38;;;;;;;5.80;1.40;;;-9.20;91.80;;;;;;2219915;64;20170;-36
2021/12/22 00:18:04;;;;;;;5.77;1.80;;;-9.30;91.90;;;;;;2220555;64;20089;-38
2021/12/22 00:20:31;;;;;;;2.80;1.20;;;-9.30;92.30;;;;;;2220546;64;20156;-32
2021/12/22 00:22:57;;;;;;;3.67;1.13;;;-9.30;92.90;;;;;;2220628;64;20468;-34
2021/12/22 00:25:25;;;;;;;2.53;1.20;;;-9.30;92.80;;;;;;2220304;64;20084;-33
2021/12/22 00:27:53;;;;;;;3.43;1.30;;;-9.30;92.90;;;;;;2220619;64;20088;-33
2021/12/22 00:30:20;;;;;;;5.03;1.40;;;-9.30;93.00;;;;;;2220491;64;20088;-32
2021/12/22 00:32:52;;;;;;;4.00;1.60;;;-9.40;92.90;;;;;;2220567;64;20077;-33
2021/12/22 00:35:20;;;;;;;4.30;1.37;;;-9.40;92.80;;;;;;2220242;64;20108;-36
2021/12/22 00:37:47;;;;;;;3.40;1.43;;;-9.40;93.00;;;;;;2220643;64;20108;-33
2021/12/22 00:40:14;;;;;;;3.33;1.57;;;-9.50;93.30;;;;;;2220965;64;20572;-33
2021/12/22 00:42:40;;;;;;;4.47;1.67;;;-9.50;92.80;;;;;;2221398;64;20092;-32
2021/12/22 00:45:07;;;;;;;1.60;0.63;;;-9.60;92.90;;;;;;2221071;64;20089;-33
2021/12/22 00:47:33;;;;;;;4.23;1.50;;;-9.50;93.30;;;;;;2221077;64;20184;-32
2021/12/22 00:50:01;;;;;;;5.93;1.90;;;-9.60;92.80;;;;;;2220923;64;20088;-32
2021/12/22 00:52:27;;;;;;;4.13;1.47;;;-9.60;92.90;;;;;;2221271;64;20119;-32
2021/12/22 00:54:54;;;;;;;5.57;1.60;;;-9.70;93.00;;;;;;2220431;64;20118;-33
2021/12/22 00:57:20;;;;;;;5.30;1.73;;;-9.80;93.20;;;;;;2221039;64;20089;-33
2021/12/22 00:59:48;;;;;;;3.77;1.40;;;-9.90;93.30;;;;;;2223565;64;20095;-33
2021/12/22 01:02:17;;;;;;;3.17;1.20;;;-9.90;93.10;;;;;;2221071;64;20160;-35
2021/12/22 01:04:44;;;;;;;4.33;1.20;;;-9.90;93.10;;;;;;2221069;64;20088;-46
2021/12/22 01:07:10;;;;;;;2.80;1.20;;;-9.90;93.20;;;;;;2221185;64;20124;-32
2021/12/22 01:09:37;;;;;;;2.83;1.17;;;-10.00;93.00;;;;;;2220927;64;20135;-33
2021/12/22 01:12:04;;;;;;;3.90;1.53;;;-10.00;93.40;;;;;;2221068;64;20176;-32
2021/12/22 01:14:31;;;;;;;2.07;1.20;;;-9.90;93.20;;;;;;2221005;64;20080;-33
2021/12/22 01:17:01;;;;;;;6.30;1.70;;;-9.90;92.80;;;;;;2221131;64;20180;-33
2021/12/22 01:19:37;;;;;;;4.57;1.73;;;-10.00;92.60;;;;;;2221058;64;20080;-36
2021/12/22 01:22:26;;;;;;;3.20;1.30;;;-10.00;92.70;;;;;;2221129;64;20095;-33
2021/12/22 01:25:01;;;;;;;3.20;1.37;;;-10.00;92.70;;;;;;2221140;64;20542;-32
2021/12/22 01:27:33;;;;;;;3.67;1.52;;;-10.00;92.70;;;;;;2221059;64;20147;-32
2021/12/22 01:30:00;;;;;;;1.97;0.90;;;-10.00;92.70;;;;;;2220835;64;20107;-33
2021/12/22 01:32:27;;;;;;;3.73;1.23;;;-10.00;92.60;;;;;;2220961;64;20076;-32
2021/12/22 01:34:53;;;;;;;5.40;1.57;;;-10.10;92.60;;;;;;2220992;64;20092;-34
2021/12/22 01:37:22;;;;;;;5.97;1.63;;;-10.20;92.70;;;;;;2221017;64;20164;-33
2021/12/22 01:39:48;;;;;;;5.57;1.73;;;-10.30;93.00;;;;;;2220207;64;20096;-32
2021/12/22 01:42:15;;;;;;;7.10;1.57;;;-10.30;93.00;;;;;;2220914;64;20080;-34
2021/12/22 01:50:18;;;;;;;5.38;1.75;;;-10.40;92.50;;;;;;2220733;64;20156;-51
2021/12/22 01:52:45;;;;;;;4.30;1.23;;;-10.40;92.50;;;;;;2219154;64;20099;-53
2021/12/22 01:55:38;;;;;;;6.03;1.43;;;-10.30;92.50;;;;;;2221130;64;20127;-34
2021/12/22 01:58:06;;;;;;;4.73;1.77;;;-10.40;92.50;;;;;;2219206;64;20100;-33
2021/12/22 02:00:33;;;;;;;7.13;2.20;;;-10.50;92.50;;;;;;2220871;64;20099;-36
2021/12/22 02:02:59;;;;;;;3.60;1.63;;;-10.50;93.20;;;;;;2220855;64;20123;-37
2021/12/22 02:05:26;;;;;;;3.07;1.10;;;-10.60;92.90;;;;;;2220910;64;20118;-46
2021/12/22 02:07:56;;;;;;;6.40;1.83;;;-10.60;92.80;;;;;;2220873;64;20472;-36
2021/12/22 02:10:56;;;;;;;5.40;1.73;;;-10.50;93.10;;;;;;2221041;64;20097;-37
2021/12/22 02:13:21;;;;;;;10.93;2.77;;;-10.70;92.90;;;;;;2220162;64;20176;-33
2021/12/22 02:15:48;;;;;;;3.13;1.57;;;-10.60;93.00;;;;;;2220897;64;20104;-48
2021/12/22 02:18:19;;;;;;;6.47;2.30;;;-10.70;92.90;;;;;;2220665;64;20104;-33
2021/12/22 02:20:49;;;;;;;7.17;1.07;;;-10.70;92.90;;;;;;2221148;64;20174;-34
2021/12/22 02:23:16;;;;;;;7.20;2.27;;;-10.80;92.90;;;;;;2220825;64;20080;-37
2021/12/22 02:25:51;;;;;;;9.83;2.33;;;-10.80;92.90;;;;;;2220903;64;20104;-33
2021/12/22 02:28:23;;;;;;;6.87;1.60;;;-10.90;92.60;;;;;;2220746;64;20484;-35
2021/12/22 02:30:51;;;;;;;4.43;1.33;;;-10.90;92.70;;;;;;2221028;64;20100;-34
2021/12/22 02:38:31;;;;;;;9.87;1.83;;;-11.00;92.00;;;;;;2220502;64;20096;-34
2021/12/22 02:40:57;;;;;;;5.63;1.40;;;-11.20;92.00;;;;;;2220794;64;20100;-34
2021/12/22 02:43:30;;;;;;;4.80;1.80;;;-11.20;92.00;;;;;;2220173;64;20103;-33
2021/12/22 02:45:57;;;;;;;7.67;1.63;;;-11.20;92.20;;;;;;2220822;64;20510;-33
2021/12/22 02:48:27;;;;;;;6.10;1.93;;;-11.20;92.20;;;;;;2220663;64;20504;-32
2021/12/22 02:50:54;;;;;;;4.93;1.63;;;-11.20;92.10;;;;;;2220819;64;20134;-36
2021/12/22 02:53:26;;;;;;;5.50;1.60;;;-11.10;92.10;;;;;;2220568;64;20116;-33
2021/12/22 02:56:12;;;;;;;4.07;1.23;;;-11.10;92.10;;;;;;2220215;64;20099;-33
2021/12/22 03:01:24;;;;;;;3.30;0.70;;;-11.10;92.20;;;;;;2220750;64;20488;-33
2021/12/22 03:03:58;;;;;;;6.87;1.60;;;-11.10;92.20;;;;;;2220775;64;20092;-34
2021/12/22 03:06:38;;;;;;;7.67;1.70;;;-11.10;92.40;;;;;;2220790;64;20096;-33
2021/12/22 03:09:18;;;;;;;4.03;1.10;;;-11.10;92.00;;;;;;2220586;64;20085;-33
2021/12/22 03:11:44;;;;;;;4.57;1.07;;;-11.20;92.20;;;;;;2220761;64;20092;-34
2021/12/22 03:14:12;;;;;;;2.00;0.67;;;-11.00;92.00;;;;;;2220642;64;20089;-33
2021/12/22 03:16:42;;;;;;;1.23;0.80;;;-11.00;91.70;;;;;;2220760;64;20163;-34
2021/12/22 03:19:35;;;;;;;1.47;1.10;;;-11.00;91.60;;;;;;2220718;64;20080;-33
2021/12/22 03:22:04;;;;;;;0.83;0.57;;;-11.00;91.50;;;;;;2219895;64;20107;-33
2021/12/22 03:24:32;;;;;;;5.97;2.00;;;-11.00;91.40;;;;;;2220051;64;20088;-33
2021/12/22 03:27:03;;;;;;;1.53;0.97;;;-11.00;91.10;;;;;;2220770;64;20611;-32
2021/12/22 03:29:34;;;;;;;1.90;0.80;;;-11.10;91.40;;;;;;2220479;64;20096;-33
2021/12/22 03:32:00;;;;;;;10.33;1.60;;;-11.10;91.40;;;;;;2220735;64;20093;-33
2021/12/22 03:34:27;;;;;;;2.90;1.37;;;-11.00;91.30;;;;;;2220555;64;20163;-33
2021/12/22 03:36:54;;;;;;;2.50;0.67;;;-11.10;91.50;;;;;;2220697;64;20547;-34
2021/12/22 03:39:20;;;;;;;6.77;2.07;;;-11.10;91.90;;;;;;2220563;64;20084;-34
2021/12/22 03:41:47;;;;;;;6.23;1.90;;;-11.10;92.50;;;;;;2220065;64;20095;-33
2021/12/22 03:44:13;;;;;;;5.00;1.70;;;-11.20;91.70;;;;;;2220593;64;20085;-33
2021/12/22 03:46:40;;;;;;;4.40;1.73;;;-11.20;91.90;;;;;;2220675;64;20107;-35
2021/12/22 03:49:08;;;;;;;6.17;2.00;;;-11.20;91.70;;;;;;2220486;64;20107;-33
2021/12/22 03:51:36;;;;;;;4.73;2.13;;;-11.20;91.40;;;;;;2219906;64;20468;-34
2021/12/22 03:54:09;;;;;;;4.70;1.43;;;-11.30;91.90;;;;;;2220552;64;20201;-34
2021/12/22 03:56:36;;;;;;;2.70;0.90;;;-11.40;91.90;;;;;;2220772;64;20106;-34
2021/12/22 03:59:03;;;;;;;5.03;2.30;;;-11.40;92.00;;;;;;2220350;64;20087;-34
2021/12/22 04:01:30;;;;;;;5.97;2.60;;;-11.40;91.90;;;;;;2220669;64;20115;-34
2021/12/22 04:04:01;;;;;;;4.87;2.10;;;-11.40;92.20;;;;;;2219686;64;20088;-33
2021/12/22 04:06:27;;;;;;;4.70;1.63;;;-11.40;91.90;;;;;;2220493;64;20109;-34
2021/12/22 04:08:54;;;;;;;5.87;1.73;;;-11.30;91.80;;;;;;2220419;64;20119;-44
2021/12/22 04:11:20;;;;;;;7.20;2.67;;;-11.40;92.00;;;;;;2220629;64;20089;-34
2021/12/22 04:13:47;;;;;;;8.70;2.60;;;-11.30;92.60;;;;;;2220417;64;20088;-32
2021/12/22 04:16:13;;;;;;;10.10;2.90;;;-11.50;92.00;;;;;;2220588;64;20118;-33
2021/12/22 04:18:40;;;;;;;5.67;2.10;;;-11.50;92.40;;;;;;2220317;64;20109;-37
2021/12/22 04:21:06;;;;;;;8.40;2.53;;;-11.60;92.20;;;;;;2220598;64;20122;-32
2021/12/22 04:23:33;;;;;;;3.60;1.20;;;-11.50;92.50;;;;;;2220474;64;20096;-35
2021/12/22 04:26:00;;;;;;;4.00;1.43;;;-11.50;92.20;;;;;;2220485;64;20098;-35
2021/12/22 04:28:26;;;;;;;6.97;1.90;;;-11.50;92.10;;;;;;2220463;64;20088;-34
2021/12/22 04:30:53;;;;;;;9.33;1.87;;;-11.50;92.00;;;;;;2220442;64;20207;-34
2021/12/22 04:33:19;;;;;;;4.17;1.70;;;-11.40;92.30;;;;;;2220439;64;20545;-35
2021/12/22 04:35:49;;;;;;;6.20;2.33;;;-11.40;91.90;;;;;;2220361;64;20435;-35
2021/12/22 04:38:16;;;;;;;3.57;1.23;;;-11.50;92.00;;;;;;2220225;64;20182;-35
2021/12/22 04:40:43;;;;;;;6.40;2.17;;;-11.50;92.40;;;;;;2220407;64;20154;-36
2021/12/22 04:43:09;;;;;;;3.33;1.23;;;-11.50;91.80;;;;;;2220266;64;20209;-33
2021/12/22 04:45:36;;;;;;;6.13;1.40;;;-11.40;92.40;;;;;;2220513;64;20081;-33
2021/12/22 04:48:02;;;;;;;4.90;0.90;;;-11.40;92.50;;;;;;2220256;64;20105;-32
2021/12/22 04:50:31;;;;;;;7.23;2.43;;;-11.30;91.90;;;;;;2219860;64;20170;-37
2021/12/22 04:53:22;;;;;;;8.33;2.83;;;-11.40;91.90;;;;;;2220322;64;20096;-34
2021/12/22 04:55:47;;;;;;;4.17;1.53;;;-11.40;91.90;;;;;;2220314;64;20108;-33
2021/12/22 04:58:13;;;;;;;4.93;1.40;;;-11.50;91.40;;;;;;2220091;64;20096;-33
2021/12/22 05:00:40;;;;;;;5.83;1.90;;;-11.50;92.00;;;;;;2220496;64;20103;-33
2021/12/22 05:03:07;;;;;;;8.53;1.87;;;-11.60;91.70;;;;;;2220351;64;20103;-34
2021/12/22 05:05:33;;;;;;;5.90;1.87;;;-11.50;91.50;;;;;;2220286;64;20168;-32
2021/12/22 05:08:00;;;;;;;6.20;2.93;;;-11.50;91.90;;;;;;2220278;64;20136;-35
2021/12/22 05:10:27;;;;;;;10.03;2.87;;;-11.70;91.80;;;;;;2220552;64;20080;-34
2021/12/22 05:12:53;;;;;;;7.27;3.13;;;-11.80;92.20;;;;;;2220252;64;20098;-39
2021/12/22 05:15:22;;;;;;;7.43;2.53;;;-11.80;92.20;;;;;;2219807;64;20515;-34
2021/12/22 05:18:12;;;;;;;6.50;2.63;;;-11.80;92.30;;;;;;2220178;64;20566;-34
2021/12/22 05:20:35;;;;;;;6.47;2.13;;;-11.70;92.90;;;;;;2220169;64;20568;-33
2021/12/22 05:23:02;;;;;;;7.13;2.23;;;-11.70;92.30;;;;;;2220390;64;20139;-34
2021/12/22 05:25:28;;;;;;;3.97;1.37;;;-11.80;92.10;;;;;;2220898;64;20088;-38
2021/12/22 05:27:55;;;;;;;4.20;1.93;;;-11.70;91.90;;;;;;2221062;64;20089;-34
2021/12/22 05:30:21;;;;;;;4.27;1.73;;;-11.80;92.30;;;;;;2220973;64;20097;-35
2021/12/22 05:32:48;;;;;;;1.73;0.83;;;-11.80;91.90;;;;;;2220897;64;20160;-33
2021/12/22 05:35:15;;;;;;;5.93;1.80;;;-11.70;92.10;;;;;;2220812;64;20532;-33
2021/12/22 05:37:41;;;;;;;5.63;2.30;;;-11.70;92.10;;;;;;2220782;64;20124;-33
2021/12/22 05:40:08;;;;;;;5.73;2.33;;;-11.80;92.00;;;;;;2220993;64;20097;-33
2021/12/22 05:42:35;;;;;;;7.33;2.17;;;-11.80;92.20;;;;;;2220898;64;20095;-33
2021/12/22 05:45:01;;;;;;;4.73;1.90;;;-11.80;92.40;;;;;;2220989;64;20479;-33
2021/12/22 05:47:28;;;;;;;6.03;2.87;;;-11.70;92.40;;;;;;2220919;64;20104;-33
2021/12/22 05:49:54;;;;;;;8.40;2.33;;;-11.80;92.50;;;;;;2220821;64;20128;-34
2021/12/22 05:52:21;;;;;;;6.53;2.30;;;-11.90;92.80;;;;;;2220897;64;20093;-33
2021/12/22 05:54:49;;;;;;;9.83;2.53;;;-11.90;92.30;;;;;;2220988;64;20177;-35
2021/12/22 05:57:15;;;;;;;7.97;2.37;;;-11.90;92.30;;;;;;2215032;64;20166;-34
2021/12/22 05:59:42;;;;;;;7.87;2.57;;;-11.90;92.10;;;;;;2215369;64;20546;-34
2021/12/22 06:02:08;;;;;;;5.13;2.03;;;-11.80;92.20;;;;;;2215099;64;20104;-32
2021/12/22 06:04:35;;;;;;;8.50;2.53;;;-11.80;92.10;;;;;;2215446;64;20548;-39
2021/12/22 06:07:01;;;;;;;7.57;2.37;;;-11.90;91.90;;;;;;2215138;64;20111;-34
2021/12/22 06:09:28;;;;;;;7.07;2.60;;;-11.80;92.50;;;;;;2212245;64;20100;-35
2021/12/22 06:11:54;;;;;;;4.77;2.20;;;-11.60;92.50;;;;;;2215279;64;20472;-35
2021/12/22 06:14:21;;;;;;;3.90;1.10;;;-11.70;91.70;;;;;;2215369;64;20146;-34
2021/12/22 06:16:47;;;;;;;3.73;1.40;;;-11.70;91.70;;;;;;2215166;64;20085;-34
2021/12/22 06:19:15;;;;;;;4.17;1.30;;;-11.80;91.10;;;;;;2215287;64;20267;-32
2021/12/22 06:21:42;;;;;;;4.30;1.50;;;-11.90;91.10;;;;;;2214997;64;20085;-33
2021/12/22 06:24:08;;;;;;;4.30;1.40;;;-11.80;91.20;;;;;;2215264;64;20480;-33
2021/12/22 06:26:35;;;;;;;7.70;1.97;;;-11.70;91.30;;;;;;2215201;64;20093;-33
2021/12/22 06:29:01;;;;;;;6.40;2.07;;;-11.80;90.90;;;;;;2215200;64;20103;-56
2021/12/22 06:31:28;;;;;;;5.03;2.03;;;-11.90;90.80;;;;;;2215184;64;20081;-34
2021/12/22 06:33:54;;;;;;;7.33;2.57;;;-11.90;91.00;;;;;;2216009;64;20687;-34
2021/12/22 06:36:21;;;;;;;2.60;1.20;;;-11.70;91.30;;;;;;2220595;64;20535;-34
2021/12/22 06:38:47;;;;;;;7.00;2.10;;;-11.70;90.90;;;;;;2220827;64;20101;-34
2021/12/22 06:41:14;;;;;;;4.40;1.60;;;-11.80;90.50;;;;;;2220014;64;20084;-33
2021/12/22 06:43:40;;;;;;;4.97;1.80;;;-11.80;90.90;;;;;;2220154;64;20154;-37
2021/12/22 06:46:07;;;;;;;6.93;2.23;;;-11.80;90.50;;;;;;2220643;64;20085;-32
2021/12/22 06:48:33;;;;;;;8.40;1.97;;;-11.90;90.30;;;;;;2220759;64;20213;-36
2021/12/22 06:51:00;;;;;;;5.17;1.73;;;-12.00;90.00;;;;;;2220519;64;20160;-33
2021/12/22 06:53:26;;;;;;;5.37;2.10;;;-11.90;90.10;;;;;;2220746;64;20093;-31
2021/12/22 06:55:53;;;;;;;5.77;2.03;;;-12.00;90.10;;;;;;2220599;64;20560;-32
2021/12/22 06:58:20;;;;;;;4.90;1.90;;;-11.90;89.40;;;;;;2220717;64;20085;-33
2021/12/22 07:00:46;;;;;;;2.60;1.13;;;-12.10;89.60;;;;;;2220732;64;20237;-35
2021/12/22 07:03:13;;;;;;;3.10;1.47;;;-12.20;89.90;;;;;;2220685;64;20096;-53
2021/12/22 07:05:39;;;;;;;4.10;1.80;;;-12.10;90.10;;;;;;2220470;64;20096;-33
2021/12/22 07:08:06;;;;;;;2.70;1.20;;;-12.00;88.90;;;;;;2220770;64;20612;-31
2021/12/22 07:10:32;;;;;;;7.07;1.93;;;-11.80;89.10;;;;;;2220550;64;20108;-31
2021/12/22 07:13:00;;;;;;;4.37;1.67;;;-11.70;87.60;;;;;;2220133;64;20116;-32
2021/12/22 07:15:26;;;;;;;6.50;2.43;;;-11.70;87.60;;;;;;2220625;64;20096;-33
2021/12/22 07:17:53;;;;;;;2.03;0.83;;;-11.80;86.00;;;;;;2220633;64;20552;-31
2021/12/22 07:20:19;;;;;;;3.17;1.03;;;-11.70;86.20;;;;;;2220311;64;20458;-31
2021/12/22 07:22:46;;;;;;;6.77;2.50;;;-11.70;85.50;;;;;;2220011;64;20089;-32
2021/12/22 07:25:14;;;;;;;4.03;1.57;;;-11.80;83.70;;;;;;2220406;64;20266;-32
2021/12/22 07:27:40;;;;;;;3.17;1.00;;;-12.00;83.90;;;;;;2220550;64;20088;-32
2021/12/22 07:30:07;;;;;;;7.03;2.27;;;-11.90;83.30;;;;;;2220425;64;20188;-31
2021/12/22 07:32:34;;;;;;;7.53;2.60;;;-11.70;82.30;;;;;;2220775;64;20088;-44
2021/12/22 07:35:32;;;;;;;4.50;1.27;;;-11.80;82.10;;;;;;2223229;64;20143;-32
2021/12/22 07:38:24;;;;;;;2.70;1.10;;;-11.60;83.10;;;;;;2219870;64;20104;-32
2021/12/22 07:40:54;;;;;;;5.10;1.63;;;-11.50;81.20;;;;;;2220528;64;20107;-32
2021/12/22 07:43:20;;;;;;;3.60;1.37;;;-11.60;79.80;;;;;;2220537;64;20135;-31
2021/12/22 07:45:47;;;;;;;4.70;1.47;;;-11.50;82.00;;;;;;2220500;64;20115;-33
2021/12/22 07:48:13;;;;;;;6.27;1.47;;;-11.50;80.50;;;;;;2214419;64;20128;-31
2021/12/22 07:50:40;;;;;;;8.50;2.13;;;-11.40;81.30;;;;;;2215033;64;20252;-32
2021/12/22 07:53:06;;;;;;;4.27;1.67;;;-11.50;80.50;;;;;;2214957;64;20104;-56
2021/12/22 07:55:33;;;;;;;4.17;1.67;;;-11.50;79.20;;;;;;2211965;64;20576;-33
2021/12/22 07:57:59;;;;;;;5.83;1.77;;;-11.50;78.70;;;;;;2214703;64;20108;-34
2021/12/22 08:00:26;;;;;;;3.50;0.73;;;-11.40;80.00;;;;;;2215058;64;20085;-35
2021/12/22 08:02:52;;;;;;;3.70;1.50;;;-11.20;78.10;;;;;;2214806;64;20093;-31
2021/12/22 08:05:22;;;;;;;2.07;0.93;;;-11.40;76.70;;;;;;2215168;64;20112;-32
2021/12/22 08:07:48;;;;;;;2.30;0.90;;;-11.30;76.30;;;;;;2214880;64;20089;-41
2021/12/22 08:10:15;;;;;;;4.23;1.00;;;-11.00;76.50;;;;;;2214841;64;20170;-32
2021/12/22 08:12:41;;;;;;;7.63;1.50;;;-11.20;75.60;;;;;;2214759;64;20104;-32
2021/12/22 08:15:08;;;;;;;6.93;2.10;;;-11.10;76.00;;;;;;2214858;64;20163;-45
2021/12/22 08:17:34;;;;;;;5.63;2.10;;;-10.90;75.70;;;;;;2214856;64;20489;-34
2021/12/22 08:20:02;;;;;;;5.73;1.90;;;-11.10;76.30;;;;;;2219205;64;20593;-31
2021/12/22 08:22:29;;;;;;;8.23;2.27;;;-11.00;77.10;;;;;;2220310;64;20173;-32
2021/12/22 08:24:56;;;;;;;6.63;1.60;;;-10.90;75.40;;;;;;2220429;64;20103;-30
2021/12/22 08:27:22;;;;;;;4.07;1.40;;;-11.00;74.60;;;;;;2220297;64;20088;-34
2021/12/22 08:29:49;;;;;;;9.53;2.57;;;-10.90;74.80;;;;;;2220420;64;20088;-31
2021/12/22 08:32:16;;;;;;;8.60;2.37;;;-11.10;75.00;;;;;;2220283;64;20108;-31
2021/12/22 08:34:42;;;;;;;7.07;2.87;;;-10.80;74.90;;;;;;2220543;64;20512;-31
2021/12/22 08:39:57;;;;;;;6.17;2.03;;;-11.10;72.80;;;;;;2219874;64;20080;-30
2021/12/22 08:42:23;;;;;;;5.53;1.97;;;-11.00;74.30;;;;;;2220479;64;20172;-31
2021/12/22 08:44:50;;;;;;;8.40;2.47;;;-10.90;73.00;;;;;;2220292;64;20081;-32
2021/12/22 08:47:16;;;;;;;3.43;1.20;;;-10.90;74.00;;;;;;2220306;64;20088;-32
2021/12/22 08:49:44;;;;;;;3.80;1.10;;;-10.90;72.70;;;;;;2220215;64;20096;-31
2021/12/22 08:52:10;;;;;;;6.33;1.57;;;-11.10;73.80;;;;;;2220524;64;20103;-35
2021/12/22 08:54:36;;;;;;;3.70;1.20;;;-11.10;72.00;;;;;;2220170;64;20085;-36
2021/12/22 08:57:03;;;;;;;2.83;1.07;;;-11.20;72.00;;;;;;2220434;64;20613;-31
2021/12/22 08:59:30;;;;;;;4.00;1.37;;;-11.30;73.00;;;;;;2220836;64;20516;-32
2021/12/22 09:01:56;;;;;;;8.53;1.87;;;-11.00;74.10;;;;;;2221150;64;20081;-31
2021/12/22 09:04:23;;;;;;;6.30;1.80;;;-11.20;73.40;;;;;;2220839;64;20164;-31
2021/12/22 09:06:50;;;;;;;6.23;1.50;;;-11.30;74.00;;;;;;2221099;64;20088;-43
2021/12/22 09:09:17;;;;;;;1.80;1.20;;;-11.40;73.70;;;;;;2220861;64;20092;-31
2021/12/22 09:11:43;;;;;;;4.00;1.70;;;-11.30;74.90;;;;;;2220986;64;20127;-34
2021/12/22 09:14:10;;;;;;;4.17;1.27;;;-11.30;74.50;;;;;;2221095;64;20081;-32
2021/12/22 09:16:37;;;;;;;3.47;0.97;;;-11.20;73.60;;;;;;2221087;64;20171;-32
2021/12/22 09:19:04;;;;;;;2.43;1.37;;;-11.20;73.90;;;;;;2220792;64;20100;-32
2021/12/22 09:21:31;;;;;;;3.57;1.23;;;-11.80;73.90;;;;;;2221009;64;20665;-33
2021/12/22 09:23:58;;;;;;;5.70;1.23;;;-11.50;74.50;;;;;;2220783;64;20472;-31
2021/12/22 09:26:24;;;;;;;6.83;1.83;;;-11.50;75.00;;;;;;2221034;64;20112;-32
2021/12/22 09:28:51;;;;;;;5.77;1.90;;;-11.60;74.30;;;;;;2221031;64;20634;-33
2021/12/22 09:31:18;;;;;;;5.93;1.90;;;-11.50;73.50;;;;;;2221040;64;20092;-31
2021/12/22 09:33:45;;;;;;;2.87;1.20;;;-11.70;74.30;;;;;;2220690;64;20097;-32
2021/12/22 09:36:11;;;;;;;7.47;1.70;;;-11.90;75.20;;;;;;2221028;64;20119;-33
2021/12/22 09:38:38;;;;;;;6.03;1.97;;;-11.70;77.20;;;;;;2220656;64;20601;-31
2021/12/22 09:41:05;;;;;;;10.07;2.07;;;-11.80;75.00;;;;;;2220879;64;20581;-35
2021/12/22 09:43:31;;;;;;;5.27;1.90;;;-11.90;76.30;;;;;;2220869;64;20117;-32
2021/12/22 09:46:02;;;;;;;8.30;2.07;;;-12.00;76.10;;;;;;2220211;64;20115;-33
2021/12/22 09:48:47;;;;;;;6.07;1.97;;;-12.10;76.90;;;;;;2220697;64;20156;-31
2021/12/22 09:53:46;;;;;;;7.70;1.97;;;-11.90;77.70;;;;;;2220866;64;20096;-34
2021/12/22 09:56:14;;;;;;;5.87;1.97;;;-12.10;77.00;;;;;;2220878;64;20098;-32
2021/12/22 09:58:42;;;;;;;6.33;2.53;;;-12.00;76.70;;;;;;2220811;64;20112;-34
2021/12/22 10:01:09;;;;;;;5.97;1.67;;;-11.80;78.90;;;;;;2220213;64;20103;-50
2021/12/22 10:03:35;;;;;;;2.57;1.17;;;-12.20;78.30;;;;;;2220757;64;20076;-33
2021/12/22 10:06:02;;;;;;;4.30;1.27;;;-12.20;78.10;;;;;;2220899;64;20095;-32
2021/12/22 10:08:29;;;;;;;4.97;1.97;;;-12.10;77.90;;;;;;2220775;64;20111;-35
2021/12/22 10:11:04;;;;;;;8.13;1.83;;;-12.00;76.20;;;;;;2220661;64;20107;-32
2021/12/22 10:13:30;;;;;;;6.33;1.67;;;-12.00;78.30;;;;;;2220562;64;20501;-31
2021/12/22 10:15:57;;;;;;;0.83;0.50;;;-12.10;76.70;;;;;;2220254;64;20076;-31
2021/12/22 10:18:28;;;;;;;4.77;1.30;;;-12.10;76.90;;;;;;2220521;64;20119;-38
2021/12/22 10:21:12;;;;;;;3.90;1.57;;;-12.20;77.00;;;;;;2220775;64;20165;-37
2021/12/22 10:23:43;;;;;;;4.70;0.98;;;-12.30;76.80;;;;;;2220643;64;20081;-34
2021/12/22 10:26:09;;;;;;;3.17;1.27;;;-12.60;77.00;;;;;;2220732;64;20100;-33
2021/12/22 10:28:51;;;;;;;2.77;0.90;;;-12.50;77.80;;;;;;2220090;64;20088;-34
2021/12/22 10:31:20;;;;;;;6.50;1.10;;;-12.60;78.30;;;;;;2220743;64;20545;-33
2021/12/22 10:33:47;;;;;;;7.33;1.37;;;-12.50;78.40;;;;;;2220568;64;20162;-32
2021/12/22 10:36:16;;;;;;;4.70;1.53;;;-12.40;78.00;;;;;;2220835;64;20104;-31
2021/12/22 10:38:53;;;;;;;5.23;1.27;;;-12.70;77.10;;;;;;2220026;64;20130;-35
2021/12/22 10:41:21;;;;;;;5.77;2.03;;;-12.60;78.90;;;;;;2220880;64;20096;-34
2021/12/22 10:43:49;;;;;;;3.90;1.87;;;-12.70;78.50;;;;;;2220025;64;20142;-33
2021/12/22 10:46:26;;;;;;;10.30;2.20;;;-12.90;78.80;;;;;;2220803;64;20102;-52
2021/12/22 10:49:17;;;;;;;3.40;1.03;;;-12.80;80.80;;;;;;2220556;64;20100;-34
2021/12/22 10:51:47;;;;;;;10.10;2.37;;;-13.00;80.30;;;;;;2220705;64;20085;-34
2021/12/22 10:54:16;;;;;;;5.93;1.57;;;-13.10;80.10;;;;;;2220581;64;20093;-37
2021/12/22 10:56:46;;;;;;;2.27;1.00;;;-12.90;79.30;;;;;;2220142;64;20084;-37
2021/12/22 10:59:14;;;;;;;4.90;2.17;;;-13.00;79.50;;;;;;2220536;64;20093;-33
2021/12/22 11:01:56;;;;;;;4.10;1.67;;;-13.20;79.80;;;;;;2220609;64;20092;-34
2021/12/22 11:04:27;;;;;;;6.00;2.03;;;-13.10;81.10;;;;;;2220298;64;20468;-49
2021/12/22 11:06:55;;;;;;;10.53;2.80;;;-13.10;81.10;;;;;;2220685;64;20085;-34
2021/12/22 11:09:22;;;;;;;5.67;1.63;;;-13.40;81.20;;;;;;2220402;64;20096;-32
2021/12/22 11:11:50;;;;;;;3.03;1.13;;;-13.40;82.50;;;;;;2220467;64;20164;-33
2021/12/22 11:14:19;;;;;;;1.80;1.00;;;-13.30;82.20;;;;;;2220469;64;20100;-32
2021/12/22 11:16:50;;;;;;;7.17;2.03;;;-13.30;81.90;;;;;;2220569;64;20111;-33
2021/12/22 11:19:17;;;;;;;6.63;1.93;;;-13.10;82.30;;;;;;2220365;64;20119;-33
2021/12/22 11:22:01;;;;;;;2.00;1.00;;;-13.30;81.00;;;;;;2220703;64;20084;-33
2021/12/22 11:24:28;;;;;;;5.80;2.10;;;-13.20;80.80;;;;;;2220543;64;20571;-34
2021/12/22 11:26:54;;;;;;;3.50;1.20;;;-13.60;81.90;;;;;;2220061;64;20100;-34
2021/12/22 11:29:21;;;;;;;3.70;1.10;;;-13.40;81.50;;;;;;2220570;64;20168;-33
2021/12/22 11:31:48;;;;;;;3.90;0.80;;;-13.40;81.70;;;;;;2220574;64;20238;-47
2021/12/22 11:34:15;;;;;;;7.30;2.00;;;-13.50;81.80;;;;;;2216605;64;20566;-34
2021/12/22 11:36:44;;;;;;;6.70;1.83;;;-13.40;82.10;;;;;;2220578;64;20092;-35
2021/12/22 11:39:10;;;;;;;8.80;2.37;;;-13.40;81.80;;;;;;2220490;64;20588;-45
2021/12/22 11:41:54;;;;;;;4.90;1.53;;;-13.50;81.90;;;;;;2220548;64;20077;-34
2021/12/22 11:44:23;;;;;;;2.20;1.57;;;-13.60;81.90;;;;;;2220419;64;20097;-34
2021/12/22 11:46:50;;;;;;;7.43;1.10;;;-13.70;82.80;;;;;;2220614;64;20099;-47
2021/12/22 11:49:20;;;;;;;3.30;1.07;;;-13.60;83.30;;;;;;2220558;64;20115;-34
2021/12/22 11:51:47;;;;;;;2.13;0.90;;;-13.60;83.30;;;;;;2220660;64;20200;-34
2021/12/22 11:54:13;;;;;;;4.30;1.60;;;-13.90;83.00;;;;;;2220312;64;20091;-34
2021/12/22 11:56:48;;;;;;;7.50;2.30;;;-14.00;84.40;;;;;;2220496;64;20135;-36
2021/12/22 11:59:52;;;;;;;3.60;1.73;;;-13.90;84.70;;;;;;2220325;64;20088;-32
2021/12/22 12:02:45;;;;;;;5.87;1.87;;;-13.70;84.00;;;;;;2207413;64;20435;-33
2021/12/22 12:05:16;;;;;;;2.40;1.30;;;-13.80;83.20;;;;;;2206451;64;20108;-33
2021/12/22 12:07:45;;;;;;;2.53;0.97;;;-13.70;85.00;;;;;;2207119;64;20105;-34
2021/12/22 12:10:30;;;;;;;2.30;0.87;;;-14.00;83.50;;;;;;2207193;64;20090;-33
2021/12/22 12:13:00;;;;;;;2.20;0.88;;;-14.20;83.80;;;;;;2206989;64;20092;-35
2021/12/22 12:21:39;;;;;;;0.80;0.70;;;-14.20;85.10;;;;;;2207283;64;20153;-43
2021/12/22 12:21:59;;;;;;;2.17;0.93;;;-14.30;85.30;;;;;;2207159;64;20231;-39
2021/12/22 12:24:31;;;;;;;4.77;1.33;;;-14.40;86.50;;;;;;2207141;64;20086;-38
2021/12/22 12:26:58;;;;;;;2.43;0.60;;;-14.30;86.50;;;;;;2207037;64;20104;-35
2021/12/22 12:29:56;;;;;;;3.63;1.80;;;-14.30;86.60;;;;;;2207327;64;20090;-37
2021/12/22 12:32:41;;;;;;;2.57;1.27;;;-14.30;86.50;;;;;;2209315;64;20104;-44
2021/12/22 12:35:19;;;;;;;7.97;1.17;;;-14.00;86.80;;;;;;2220872;64;20556;-35
2021/12/22 12:38:07;;;;;;;1.73;1.07;;;-14.00;87.40;;;;;;2220987;64;20172;-34
2021/12/22 12:41:02;;;;;;;4.30;1.13;;;-14.20;86.40;;;;;;2221055;64;20594;-34
2021/12/22 12:43:52;;;;;;;6.82;1.88;;;-14.30;87.00;;;;;;2221077;64;20151;-33
2021/12/22 12:46:24;;;;;;;6.00;2.07;;;-14.40;86.30;;;;;;2221055;64;20088;-34
2021/12/22 12:49:07;;;;;;;5.57;1.50;;;-14.20;87.30;;;;;;2221073;64;20092;-34
2021/12/22 12:51:44;;;;;;;6.83;2.00;;;-14.20;87.80;;;;;;2220914;64;20115;-37
2021/12/22 12:54:17;;;;;;;6.27;2.37;;;-14.10;88.90;;;;;;2215442;64;20109;-33
2021/12/22 12:56:50;;;;;;;7.20;2.37;;;-14.20;89.00;;;;;;2215435;64;20085;-36
2021/12/22 12:59:18;;;;;;;3.27;1.50;;;-14.30;88.70;;;;;;2215314;64;20476;-34
2021/12/22 13:01:49;;;;;;;7.03;1.83;;;-14.30;89.70;;;;;;2215577;64;20167;-35
2021/12/22 13:04:26;;;;;;;5.20;1.40;;;-14.40;89.60;;;;;;2215407;64;20164;-33
2021/12/22 13:07:02;;;;;;;9.33;2.33;;;-14.40;89.90;;;;;;2215577;64;20182;-33
2021/12/22 13:09:41;;;;;;;5.77;2.00;;;-14.30;89.60;;;;;;2215381;64;20088;-41
2021/12/22 13:17:25;;;;;;;6.30;1.93;;;-14.30;89.90;;;;;;2215241;64;20245;-33